createdAt,value
2019-05-02T00:01:10.528Z,27.13
2019-05-02T00:03:44.154Z,30.70
2019-05-02T00:06:16.276Z,30.20
2019-05-02T00:08:51.893Z,28.30
2019-05-02T00:11:23.581Z,33.30
2019-05-02T00:13:55.524Z,30.73
2019-05-02T00:16:29.127Z,26.73
2019-05-02T00:19:00.764Z,30.30
2019-05-02T00:21:38.222Z,32.17
2019-05-02T00:24:08.513Z,28.33
2019-05-02T00:26:40.175Z,30.93
2019-05-02T00:29:13.399Z,26.93
2019-05-02T00:31:46.989Z,29.97
2019-05-02T00:34:20.613Z,28.73
2019-05-02T00:36:52.211Z,27.43
2019-05-02T00:39:25.211Z,27.03
2019-05-02T00:42:11.494Z,28.03
2019-05-02T00:44:32.547Z,27.17
2019-05-02T00:47:20.069Z,28.73
2019-05-02T00:49:51.389Z,26.03
2019-05-02T00:52:24.469Z,29.97
2019-05-02T00:54:58.674Z,25.23
2019-05-02T00:57:31.881Z,28.07
2019-05-02T01:00:06.601Z,24.67
2019-05-02T01:02:44.697Z,24.17
2019-05-02T01:05:16.779Z,32.30
2019-05-02T01:07:49.765Z,25.70
2019-05-02T01:10:22.543Z,27.70
2019-05-02T01:12:54.796Z,26.67
2019-05-02T01:15:29.626Z,23.70
2019-05-02T01:18:06.115Z,25.00
2019-05-02T01:20:36.006Z,25.60
2019-05-02T01:23:09.584Z,23.70
2019-05-02T01:25:41.947Z,24.10
2019-05-02T01:28:20.449Z,24.00
2019-05-02T01:31:18.454Z,27.97
2019-05-02T01:33:57.288Z,24.70
2019-05-02T01:36:36.703Z,28.23
2019-05-02T01:39:09.155Z,28.73
2019-05-02T01:41:42.491Z,30.27
2019-05-02T01:44:13.807Z,32.00
2019-05-02T01:46:47.296Z,29.37
2019-05-02T01:49:23.628Z,32.70
2019-05-02T01:51:56.546Z,29.43
2019-05-02T01:54:28.150Z,27.10
2019-05-02T01:57:03.927Z,28.93
2019-05-02T01:59:35.162Z,31.47
2019-05-02T02:02:08.164Z,27.93
2019-05-02T02:04:39.461Z,31.43
2019-05-02T02:07:14.996Z,28.57
2019-05-02T02:09:46.067Z,30.10
2019-05-02T02:12:17.422Z,31.83
2019-05-02T02:14:53.354Z,28.50
2019-05-02T02:17:24.014Z,27.97
2019-05-02T02:19:59.415Z,33.37
2019-05-02T02:22:58.867Z,26.80
2019-05-02T02:25:43.330Z,28.30
2019-05-02T02:28:15.829Z,31.80
2019-05-02T02:30:48.366Z,29.10
2019-05-02T02:33:21.494Z,32.13
2019-05-02T02:35:56.069Z,24.57
2019-05-02T02:38:33.685Z,26.60
2019-05-02T02:41:06.507Z,27.40
2019-05-02T02:43:38.023Z,30.93
2019-05-02T02:46:30.533Z,31.70
2019-05-02T02:49:02.926Z,32.60
2019-05-02T02:51:34.572Z,29.20
2019-05-02T02:54:07.462Z,33.50
2019-05-02T02:56:40.596Z,29.10
2019-05-02T02:59:19.365Z,27.87
2019-05-02T03:01:48.821Z,27.90
2019-05-02T03:04:23.475Z,30.30
2019-05-02T03:06:55.811Z,26.03
2019-05-02T03:09:29.136Z,30.60
2019-05-02T03:12:18.224Z,28.60
2019-05-02T03:14:53.537Z,29.40
2019-05-02T03:17:28.687Z,29.73
2019-05-02T03:20:03.444Z,28.30
2019-05-02T03:22:41.950Z,29.57
2019-05-02T03:25:08.217Z,29.77
2019-05-02T03:27:41.253Z,26.73
2019-05-02T03:30:29.596Z,29.93
2019-05-02T03:33:02.681Z,27.47
2019-05-02T03:35:40.014Z,31.07
2019-05-02T03:37:57.798Z,28.70
2019-05-02T03:40:32.175Z,27.00
2019-05-02T03:43:04.671Z,23.47
2019-05-02T03:45:40.083Z,27.27
2019-05-02T03:48:18.352Z,27.30
2019-05-02T03:50:46.297Z,25.60
2019-05-02T03:53:25.254Z,30.30
2019-05-02T03:55:53.152Z,28.37
2019-05-02T03:58:24.748Z,27.30
2019-05-02T04:01:01.636Z,31.90
2019-05-02T04:03:34.282Z,29.70
2019-05-02T04:06:05.362Z,31.23
2019-05-02T04:08:39.507Z,31.47
2019-05-02T04:11:38.388Z,28.70
2019-05-02T04:14:15.141Z,30.93
2019-05-02T04:16:40.235Z,27.07
2019-05-02T04:19:14.442Z,27.80
2019-05-02T04:21:52.522Z,29.87
2019-05-02T04:24:22.656Z,26.20
2019-05-02T04:26:56.317Z,28.63
2019-05-02T04:29:31.193Z,24.77
2019-05-02T04:32:04.709Z,25.40
2019-05-02T04:34:37.010Z,29.80
2019-05-02T04:37:08.809Z,26.90
2019-05-02T04:39:49.093Z,31.83
2019-05-02T04:42:23.212Z,30.30
2019-05-02T04:45:14.174Z,26.90
2019-05-02T04:47:29.025Z,24.60
2019-05-02T04:50:10.225Z,28.33
2019-05-02T04:52:46.865Z,22.73
2019-05-02T04:55:21.162Z,24.70
2019-05-02T04:57:50.418Z,25.37
2019-05-02T05:00:28.912Z,22.20
2019-05-02T05:03:00.591Z,21.97
2019-05-02T05:05:33.553Z,22.70
2019-05-02T05:08:07.261Z,23.20
2019-05-02T05:10:41.366Z,25.07
2019-05-02T05:13:19.476Z,20.87
2019-05-02T05:15:51.153Z,25.97
2019-05-02T05:18:20.798Z,23.67
2019-05-02T05:20:54.164Z,23.30
2019-05-02T05:23:44.818Z,22.40
2019-05-02T05:26:17.527Z,25.53
2019-05-02T05:28:49.169Z,23.83
2019-05-02T05:31:23.943Z,23.23
2019-05-02T05:33:57.793Z,24.80
2019-05-02T05:36:33.916Z,24.27
2019-05-02T05:39:08.554Z,20.77
2019-05-02T05:41:42.705Z,21.07
2019-05-02T05:44:17.886Z,19.60
2019-05-02T05:46:49.469Z,22.90
2019-05-02T05:49:25.499Z,22.47
2019-05-02T05:52:02.586Z,23.30
2019-05-02T05:54:38.379Z,26.17
2019-05-02T05:57:12.241Z,20.03
2019-05-02T05:59:44.690Z,24.23
2019-05-02T06:02:22.164Z,20.53
2019-05-02T06:05:02.515Z,16.80
2019-05-02T06:07:33.110Z,18.30
2019-05-02T06:10:09.932Z,18.40
2019-05-02T06:12:44.223Z,18.03
2019-05-02T06:15:17.490Z,19.70
2019-05-02T06:17:52.941Z,18.40
2019-05-02T06:20:25.742Z,17.53
2019-05-02T06:23:00.091Z,20.10
2019-05-02T06:25:36.601Z,17.70
2019-05-02T06:28:10.714Z,16.00
2019-05-02T06:30:44.635Z,19.70
2019-05-02T06:33:17.585Z,21.53
2019-05-02T06:36:01.070Z,22.53
2019-05-02T06:38:31.825Z,19.47
2019-05-02T06:41:04.731Z,20.10
2019-05-02T06:43:41.274Z,17.50
2019-05-02T06:46:21.927Z,17.93
2019-05-02T06:48:53.682Z,21.30
2019-05-02T06:51:25.255Z,22.63
2019-05-02T06:53:58.165Z,18.10
2019-05-02T06:56:33.147Z,17.77
2019-05-02T06:59:04.582Z,15.77
2019-05-02T07:01:37.680Z,20.50
2019-05-02T07:04:17.504Z,15.60
2019-05-02T07:06:58.288Z,17.23
2019-05-02T07:09:23.769Z,16.20
2019-05-02T07:12:01.488Z,19.40
2019-05-02T07:14:35.341Z,17.30
2019-05-02T07:17:26.476Z,17.00
2019-05-02T07:20:03.913Z,16.30
2019-05-02T07:22:38.799Z,18.17
2019-05-02T07:25:15.793Z,14.80
2019-05-02T07:27:49.184Z,25.77
2019-05-02T07:30:24.081Z,15.90
2019-05-02T07:33:01.240Z,16.63
2019-05-02T07:35:55.220Z,20.37
2019-05-02T07:38:28.777Z,16.83
2019-05-02T07:41:00.126Z,21.60
2019-05-02T07:43:32.849Z,16.90
2019-05-02T07:46:07.711Z,16.70
2019-05-02T07:48:43.549Z,18.80
2019-05-02T07:51:21.303Z,15.37
2019-05-02T07:54:02.915Z,22.70
2019-05-02T07:56:36.213Z,22.67
2019-05-02T07:59:09.128Z,18.47
2019-05-02T08:01:44.834Z,18.87
2019-05-02T08:04:18.734Z,17.43
2019-05-02T08:06:51.513Z,19.40
2019-05-02T08:09:27.513Z,15.80
2019-05-02T08:11:58.888Z,23.17
2019-05-02T08:14:36.347Z,19.97
2019-05-02T08:17:16.889Z,15.77
2019-05-02T08:19:45.400Z,18.77
2019-05-02T08:22:26.946Z,17.10
2019-05-02T08:25:03.010Z,16.17
2019-05-02T08:27:53.204Z,18.77
2019-05-02T08:30:40.319Z,15.60
2019-05-02T08:33:08.390Z,13.63
2019-05-02T08:35:43.916Z,16.27
2019-05-02T08:38:18.999Z,21.30
2019-05-02T08:40:54.920Z,14.73
2019-05-02T08:43:26.994Z,16.00
2019-05-02T08:46:04.276Z,14.53
2019-05-02T08:48:41.858Z,17.40
2019-05-02T08:51:13.229Z,16.80
2019-05-02T08:53:52.192Z,14.33
2019-05-02T08:56:24.761Z,16.77
2019-05-02T08:58:57.760Z,16.17
2019-05-02T09:01:35.413Z,14.97
2019-05-02T09:04:11.253Z,17.10
2019-05-02T09:06:46.568Z,13.40
2019-05-02T09:09:22.843Z,13.47
2019-05-02T09:12:08.444Z,17.30
2019-05-02T09:14:34.919Z,20.33
2019-05-02T09:17:16.419Z,15.10
2019-05-02T09:19:59.436Z,17.40
2019-05-02T09:22:22.561Z,21.30
2019-05-02T09:25:02.239Z,13.57
2019-05-02T09:27:36.839Z,14.40
2019-05-02T09:30:22.688Z,15.80
2019-05-02T09:32:57.300Z,15.37
2019-05-02T09:35:33.074Z,14.90
2019-05-02T09:38:12.638Z,13.50
2019-05-02T09:40:47.161Z,16.90
2019-05-02T09:43:19.699Z,15.00
2019-05-02T09:46:02.586Z,14.90
2019-05-02T09:48:36.831Z,12.83
2019-05-02T09:51:17.195Z,12.40
2019-05-02T09:53:52.358Z,19.47
2019-05-02T09:56:25.567Z,11.70
2019-05-02T09:59:23.244Z,12.03
2019-05-02T10:01:44.425Z,13.20
2019-05-02T10:04:16.087Z,11.33
2019-05-02T10:06:52.278Z,15.20
2019-05-02T10:09:25.976Z,12.70
2019-05-02T10:11:57.982Z,12.23
2019-05-02T10:14:35.428Z,9.57
2019-05-02T10:17:13.607Z,11.77
2019-05-02T10:19:54.175Z,11.83
2019-05-02T10:22:26.667Z,10.93
2019-05-02T10:24:57.553Z,9.80
2019-05-02T10:27:38.412Z,11.47
2019-05-02T10:30:16.028Z,19.73
2019-05-02T10:32:55.565Z,11.03
2019-05-02T10:35:37.432Z,9.10
2019-05-02T10:38:14.308Z,8.60
2019-05-02T10:40:48.347Z,10.83
2019-05-02T10:43:19.219Z,12.00
2019-05-02T10:46:03.048Z,12.47
2019-05-02T10:48:38.678Z,9.70
2019-05-02T10:51:51.041Z,7.77
2019-05-02T10:54:23.134Z,11.03
2019-05-02T10:56:56.604Z,9.83
2019-05-02T10:59:27.973Z,20.37
2019-05-02T11:02:22.323Z,10.63
2019-05-02T11:04:58.700Z,12.97
2019-05-02T11:07:34.140Z,8.00
2019-05-02T11:10:09.701Z,8.20
2019-05-02T11:12:52.504Z,10.73
2019-05-02T11:15:55.509Z,6.40
2019-05-02T11:18:40.247Z,8.07
2019-05-02T11:21:08.411Z,12.80
2019-05-02T11:23:44.475Z,8.83
2019-05-02T11:26:21.488Z,7.77
2019-05-02T11:28:54.823Z,5.77
2019-05-02T11:31:26.169Z,6.77
2019-05-02T11:33:59.159Z,5.93
2019-05-02T11:36:33.028Z,7.63
2019-05-02T11:39:20.219Z,9.50
2019-05-02T11:41:52.560Z,6.93
2019-05-02T11:44:25.638Z,6.60
2019-05-02T11:47:08.464Z,8.87
2019-05-02T11:49:42.551Z,10.20
2019-05-02T11:52:18.869Z,7.47
2019-05-02T11:54:54.381Z,9.80
2019-05-02T11:57:31.186Z,7.80
2019-05-02T12:00:08.821Z,10.97
2019-05-02T12:03:02.831Z,7.80
2019-05-02T12:05:42.061Z,8.23
2019-05-02T12:08:18.404Z,6.90
2019-05-02T12:11:03.880Z,11.00
2019-05-02T12:13:37.858Z,7.73
2019-05-02T12:16:22.874Z,7.17
2019-05-02T12:19:11.422Z,10.13
2019-05-02T12:22:44.151Z,8.63
2019-05-02T12:25:22.735Z,9.60
2019-05-02T12:27:54.356Z,9.07
2019-05-02T12:30:34.149Z,7.43
2019-05-02T12:33:03.472Z,7.60
2019-05-02T12:35:36.375Z,6.30
2019-05-02T12:38:07.707Z,8.60
2019-05-02T12:40:42.185Z,11.33
2019-05-02T12:43:16.240Z,7.40
2019-05-02T12:45:49.193Z,10.30
2019-05-02T12:48:23.238Z,9.20
2019-05-02T12:50:58.195Z,9.47
2019-05-02T12:53:29.502Z,7.87
2019-05-02T12:56:02.475Z,9.30
2019-05-02T12:58:33.763Z,6.97
2019-05-02T13:01:05.193Z,7.40
2019-05-02T13:03:55.835Z,9.97
2019-05-02T13:06:28.786Z,7.73
2019-05-02T13:09:03.120Z,5.23
2019-05-02T13:11:45.877Z,6.33
2019-05-02T13:14:22.519Z,9.57
2019-05-02T13:17:01.465Z,7.03
2019-05-02T13:19:38.164Z,6.83
2019-05-02T13:22:19.487Z,6.80
2019-05-02T13:25:02.317Z,7.33
2019-05-02T13:27:43.359Z,12.07
2019-05-02T13:30:12.416Z,10.17
2019-05-02T13:32:53.722Z,8.63
2019-05-02T13:35:46.452Z,9.50
2019-05-02T13:38:22.938Z,7.53
2019-05-02T13:40:55.193Z,11.47
2019-05-02T13:43:32.383Z,11.73
2019-05-02T13:46:12.628Z,8.47
2019-05-02T13:48:44.191Z,7.43
2019-05-02T13:51:15.674Z,8.67
2019-05-02T13:54:02.036Z,6.43
2019-05-02T13:56:53.963Z,9.43
2019-05-02T13:59:25.244Z,7.37
2019-05-02T14:01:56.880Z,10.73
2019-05-02T14:04:32.658Z,13.33
2019-05-02T14:07:07.696Z,7.07
2019-05-02T14:09:57.921Z,7.10
2019-05-02T14:12:58.226Z,9.30
2019-05-02T14:15:35.735Z,8.77
2019-05-02T14:18:07.086Z,7.10
2019-05-02T14:20:42.636Z,6.47
2019-05-02T14:23:13.958Z,7.87
2019-05-02T14:25:52.099Z,8.53
2019-05-02T14:28:26.785Z,7.13
2019-05-02T14:31:02.183Z,7.77
2019-05-02T14:33:42.316Z,6.53
2019-05-02T14:36:13.973Z,9.47
2019-05-02T14:38:45.431Z,7.17
2019-05-02T14:41:47.188Z,8.93
2019-05-02T14:45:27.268Z,10.03
2019-05-02T14:48:08.980Z,12.17
2019-05-02T14:50:41.839Z,8.50
2019-05-02T14:53:11.967Z,8.47
2019-05-02T14:55:53.182Z,7.13
2019-05-02T14:58:37.739Z,5.30
2019-05-02T15:01:17.226Z,5.33
2019-05-02T15:03:52.946Z,5.47
2019-05-02T15:06:24.368Z,6.20
2019-05-02T15:08:56.187Z,6.43
2019-05-02T15:11:32.307Z,5.27
2019-05-02T15:14:03.093Z,5.03
2019-05-02T15:16:42.258Z,5.23
2019-05-02T15:19:09.492Z,5.10
2019-05-02T15:21:47.081Z,5.63
2019-05-02T15:24:17.073Z,9.80
2019-05-02T15:26:49.720Z,5.60
2019-05-02T15:29:27.076Z,4.77
2019-05-02T15:32:12.500Z,4.50
2019-05-02T15:35:02.896Z,4.43
2019-05-02T15:37:35.960Z,9.20
2019-05-02T15:42:56.676Z,5.10
2019-05-02T15:45:32.059Z,7.70
2019-05-02T15:48:04.356Z,5.20
2019-05-02T15:50:52.040Z,6.73
2019-05-02T15:53:39.152Z,5.60
2019-05-02T15:56:19.839Z,5.93
2019-05-02T15:58:45.472Z,6.93
2019-05-02T16:01:36.643Z,5.03
2019-05-02T16:04:06.908Z,5.60
2019-05-02T16:06:38.569Z,6.10
2019-05-02T16:09:11.872Z,8.77
2019-05-02T16:11:47.845Z,7.47
2019-05-02T16:14:22.597Z,4.90
2019-05-02T16:16:54.205Z,5.80
2019-05-02T16:19:30.185Z,6.23
2019-05-02T16:22:24.756Z,6.23
2019-05-02T16:24:57.517Z,5.97
2019-05-02T16:27:49.436Z,6.43
2019-05-02T16:30:25.282Z,5.97
2019-05-02T16:33:02.693Z,4.40
2019-05-02T16:35:37.854Z,7.20
2019-05-02T16:38:09.285Z,7.47
2019-05-02T16:41:09.696Z,5.30
2019-05-02T16:43:42.107Z,7.93
2019-05-02T16:46:14.125Z,7.20
2019-05-02T16:48:48.274Z,5.30
2019-05-02T16:51:31.112Z,9.43
2019-05-02T16:54:01.585Z,6.00
2019-05-02T16:56:31.619Z,5.50
2019-05-02T16:59:06.570Z,6.50
2019-05-02T17:01:38.653Z,5.80
2019-05-02T17:04:12.906Z,5.37
2019-05-02T17:06:46.045Z,8.40
2019-05-02T17:09:28.780Z,10.63
2019-05-02T17:12:06.573Z,7.80
2019-05-02T17:15:07.830Z,6.40
2019-05-02T17:17:42.459Z,5.53
2019-05-02T17:20:16.730Z,8.30
2019-05-02T17:22:50.409Z,5.87
2019-05-02T17:25:24.957Z,5.10
2019-05-02T17:28:03.984Z,6.30
2019-05-02T17:30:38.535Z,8.83
2019-05-02T17:33:32.510Z,6.67
2019-05-02T17:36:30.648Z,5.10
2019-05-02T17:39:08.346Z,5.53
2019-05-02T17:41:45.678Z,6.40
2019-05-02T17:44:22.093Z,11.10
2019-05-02T17:47:01.512Z,6.20
2019-05-02T17:49:36.436Z,8.10
2019-05-02T17:52:26.709Z,6.87
2019-05-02T17:54:57.711Z,5.43
2019-05-02T17:57:33.345Z,9.23
2019-05-02T18:00:13.090Z,7.43
2019-05-02T18:02:47.031Z,7.70
2019-05-02T18:05:26.413Z,6.40
2019-05-02T18:08:05.984Z,7.93
2019-05-02T18:10:41.968Z,5.37
2019-05-02T18:13:13.694Z,7.03
2019-05-02T18:15:48.495Z,11.53
2019-05-02T18:18:22.123Z,6.83
2019-05-02T18:20:54.820Z,8.77
2019-05-02T18:23:27.714Z,7.13
2019-05-02T18:26:04.555Z,6.40
2019-05-02T18:28:46.041Z,8.97
2019-05-02T18:31:07.833Z,8.03
2019-05-02T18:33:41.315Z,8.03
2019-05-02T18:36:17.381Z,5.83
2019-05-02T18:38:52.516Z,5.97
2019-05-02T18:41:25.941Z,6.87
2019-05-02T18:43:58.311Z,7.13
2019-05-02T18:46:32.238Z,6.50
2019-05-02T18:49:07.701Z,6.93
2019-05-02T18:51:39.018Z,8.20
2019-05-02T18:54:12.150Z,6.10
2019-05-02T18:56:49.528Z,9.00
2019-05-02T18:59:26.899Z,7.43
2019-05-02T19:01:59.789Z,6.20
2019-05-02T19:04:38.117Z,11.80
2019-05-02T19:07:14.309Z,9.30
2019-05-02T19:09:51.178Z,10.10
2019-05-02T19:12:22.565Z,9.50
2019-05-02T19:14:52.808Z,13.80
2019-05-02T19:17:25.868Z,10.80
2019-05-02T19:19:57.241Z,7.53
2019-05-02T19:22:28.936Z,8.40
2019-05-02T19:25:01.932Z,9.30
2019-05-02T19:27:57.602Z,10.00
2019-05-02T19:30:27.348Z,11.07
2019-05-02T19:33:03.628Z,12.33
2019-05-02T19:35:37.665Z,13.10
2019-05-02T19:38:11.823Z,10.70
2019-05-02T19:40:43.275Z,11.13
2019-05-02T19:43:17.046Z,13.00
2019-05-02T19:45:54.115Z,12.83
2019-05-02T19:48:35.199Z,12.07
2019-05-02T19:51:10.583Z,13.13
2019-05-02T19:53:39.360Z,9.93
2019-05-02T19:56:12.765Z,11.63
2019-05-02T19:58:46.800Z,10.80
2019-05-02T20:01:22.915Z,9.67
2019-05-02T20:03:56.742Z,10.90
2019-05-02T20:06:28.742Z,9.73
2019-05-02T20:09:04.718Z,9.57
2019-05-02T20:11:37.947Z,8.60
2019-05-02T20:14:09.928Z,8.23
2019-05-02T20:16:49.922Z,8.83
2019-05-02T20:19:26.784Z,10.93
2019-05-02T20:22:24.983Z,17.03
2019-05-02T20:25:01.196Z,9.70
2019-05-02T20:27:36.988Z,6.87
2019-05-02T20:30:13.805Z,10.53
2019-05-02T20:32:45.332Z,10.83
2019-05-02T20:35:16.787Z,11.07
2019-05-02T20:37:52.556Z,10.63
2019-05-02T20:40:32.148Z,8.57
2019-05-02T20:43:06.255Z,7.90
2019-05-02T20:45:41.517Z,9.53
2019-05-02T20:48:14.924Z,8.80
2019-05-02T20:50:48.311Z,8.17
2019-05-02T20:53:30.230Z,8.60
2019-05-02T20:55:55.777Z,7.63
2019-05-02T20:58:27.304Z,9.20
2019-05-02T21:01:07.913Z,10.37
2019-05-02T21:03:42.702Z,8.73
2019-05-02T21:06:46.818Z,7.27
2019-05-02T21:09:49.252Z,9.93
2019-05-02T21:12:21.705Z,8.73
2019-05-02T21:14:55.103Z,9.40
2019-05-02T21:17:28.092Z,9.57
2019-05-02T21:20:02.052Z,7.43
2019-05-02T21:22:37.407Z,8.93
2019-05-02T21:25:08.831Z,11.57
2019-05-02T21:27:42.131Z,9.33
2019-05-02T21:30:21.320Z,9.00
2019-05-02T21:32:55.678Z,7.17
2019-05-02T21:35:28.760Z,9.63
2019-05-02T21:38:00.596Z,10.43
2019-05-02T21:40:35.094Z,10.33
2019-05-02T21:43:08.207Z,10.67
2019-05-02T21:45:39.508Z,7.33
2019-05-02T21:48:12.829Z,12.33
2019-05-02T21:51:09.246Z,8.90
2019-05-02T21:54:02.963Z,8.77
2019-05-02T21:56:39.471Z,10.27
2019-05-02T21:59:12.514Z,7.90
2019-05-02T22:01:51.958Z,7.97
2019-05-02T22:04:23.886Z,9.30
2019-05-02T22:06:57.149Z,8.10
2019-05-02T22:09:29.295Z,8.50
2019-05-02T22:12:03.407Z,10.07
2019-05-02T22:14:37.539Z,12.37
2019-05-02T22:17:13.383Z,12.23
2019-05-02T22:19:46.141Z,7.87
2019-05-02T22:22:22.845Z,8.17
2019-05-02T22:24:55.088Z,9.57
2019-05-02T22:27:27.309Z,8.10
2019-05-02T22:30:02.317Z,7.07
2019-05-02T22:32:33.613Z,8.00
2019-05-02T22:35:05.332Z,9.60
2019-05-02T22:37:42.657Z,7.60
2019-05-02T22:40:17.147Z,10.10
2019-05-02T22:42:48.509Z,9.10
2019-05-02T22:45:21.778Z,9.30
2019-05-02T22:47:56.871Z,8.07
2019-05-02T22:50:28.211Z,8.77
2019-05-02T22:53:02.500Z,6.40
2019-05-02T22:55:34.658Z,7.33
2019-05-02T22:58:09.006Z,6.53
2019-05-02T23:00:43.467Z,7.47
2019-05-02T23:03:16.377Z,9.90
2019-05-02T23:05:55.638Z,8.87
2019-05-02T23:08:26.940Z,7.20
2019-05-02T23:11:03.502Z,10.17
2019-05-02T23:13:34.962Z,10.87
2019-05-02T23:16:08.469Z,8.77
2019-05-02T23:18:42.477Z,11.13
2019-05-02T23:21:16.532Z,6.80
2019-05-02T23:23:49.021Z,12.17
2019-05-02T23:26:46.252Z,9.50
2019-05-02T23:29:18.519Z,8.13
2019-05-02T23:31:51.772Z,11.33
2019-05-02T23:34:23.702Z,9.17
2019-05-02T23:36:56.744Z,10.33
2019-05-02T23:39:28.101Z,10.60
2019-05-02T23:42:01.982Z,8.10
2019-05-02T23:44:34.247Z,9.50
2019-05-02T23:47:08.541Z,8.03
2019-05-02T23:49:39.831Z,9.53
2019-05-02T23:52:11.833Z,9.90
2019-05-02T23:54:51.768Z,13.57
2019-05-02T23:57:23.154Z,12.33
2019-05-02T23:59:58.139Z,11.90
